Fieldton, Texas
Current Conditions -  °F | °C
As of 10:35 PM on Tuesday 21 Oct 2014 (Local Time) from KPVW Reporting Station
Scattered Clouds Scattered Clouds  
Wind Chill: 55°   Ceiling: Unl
Heat Index: 55°   Visibility: 10mi
Dew Point: 50°   Wind: 5mph
Humidity: 84%   Direction: 190°S
Pressure: 30.09"   Gusts: NA
Location:  34.04°N, 102.22°W
Report Text: KPVW 220335Z AUTO 19004KT 10SM SCT055 13/10 A3009 RMK AO2 T01270101
Loading
Personal Weather Stations






























Interactive Weather Map
Tropical Storm Tracking
New forecast layout! Learn more

10-Day Weather Forecast

Advertisements
Track Severe Weather on mobile